Time;durP1;ratioP1;P1;durP2;ratioP2;P2;SDS_P1;SDS_P2;PMS_P1;PMS_P2;Temp;Humidity;BMP_temperature;BMP_pressure;BME280_temperature;BME280_humidity;BME280_pressure;Samples;Min_cycle;Max_cycle;Signal;HPM_P1;HPM_P2
2023/07/02 00:01:11;;;;;;;5.50;5.00;;;;;;;16.23;100.00;97535.03;5090738;28;20617;-80
2023/07/02 00:03:38;;;;;;;5.10;4.30;;;;;;;16.16;100.00;97537.47;5090638;28;20242;-80
2023/07/02 00:06:06;;;;;;;6.07;5.47;;;;;;;16.15;100.00;97532.31;5090716;28;20218;-79
2023/07/02 00:08:33;;;;;;;8.03;5.30;;;;;;;16.18;100.00;97530.16;5090851;28;20278;-80
2023/07/02 00:10:59;;;;;;;5.23;4.73;;;;;;;16.17;100.00;97536.50;5090679;28;20249;-80
2023/07/02 00:13:26;;;;;;;7.17;5.43;;;;;;;16.21;100.00;97529.00;5090807;28;20269;-80
2023/07/02 00:15:52;;;;;;;5.40;4.90;;;;;;;16.19;100.00;97528.31;5090626;28;20209;-80
2023/07/02 00:18:18;;;;;;;5.20;4.70;;;;;;;16.19;100.00;97534.50;5090531;28;20626;-80
2023/07/02 00:20:46;;;;;;;9.93;5.70;;;;;;;16.15;100.00;97535.78;5090530;28;20214;-80
2023/07/02 00:23:13;;;;;;;6.63;5.33;;;;;;;16.09;100.00;97533.75;5090860;28;20233;-80
2023/07/02 00:25:40;;;;;;;5.50;4.90;;;;;;;16.01;100.00;97530.16;5090523;28;20681;-79
2023/07/02 00:28:06;;;;;;;7.27;5.20;;;;;;;15.99;100.00;97532.16;5090602;28;20231;-80
2023/07/02 00:30:33;;;;;;;7.10;5.47;;;;;;;15.95;100.00;97532.63;5090172;28;20214;-80
2023/07/02 00:32:59;;;;;;;6.60;5.63;;;;;;;15.88;100.00;97526.25;5090442;28;20232;-80
2023/07/02 00:35:26;;;;;;;6.00;5.37;;;;;;;15.80;100.00;97532.31;5090559;28;20693;-80
2023/07/02 00:37:52;;;;;;;6.47;5.60;;;;;;;15.81;100.00;97535.81;5090803;28;20273;-80
2023/07/02 00:40:20;;;;;;;6.23;5.20;;;;;;;15.81;100.00;97528.66;5090528;28;20207;-80
2023/07/02 00:42:46;;;;;;;5.80;5.20;;;;;;;15.85;100.00;97526.53;5090727;28;20234;-80
2023/07/02 00:45:13;;;;;;;6.00;5.40;;;;;;;15.91;100.00;97536.56;5090542;28;20210;-80
2023/07/02 00:47:39;;;;;;;7.20;5.60;;;;;;;15.91;100.00;97536.56;5090466;28;20213;-80
2023/07/02 00:50:09;;;;;;;6.07;5.43;;;;;;;15.93;100.00;97531.91;5090411;28;20318;-80
2023/07/02 00:52:35;;;;;;;5.80;5.20;;;;;;;15.96;100.00;97521.81;5091932;28;20214;-80
2023/07/02 00:55:02;;;;;;;5.57;5.07;;;;;;;15.97;100.00;97527.97;5094070;28;20210;-80
2023/07/02 00:57:30;;;;;;;6.30;4.70;;;;;;;15.95;100.00;97536.09;5094226;28;20210;-80
2023/07/02 00:59:57;;;;;;;5.10;4.60;;;;;;;15.94;100.00;97534.44;5093634;28;20260;-80
2023/07/02 01:02:25;;;;;;;6.00;4.43;;;;;;;15.90;100.00;97541.09;5091401;28;20206;-80
2023/07/02 01:04:57;;;;;;;6.13;4.87;;;;;;;15.90;100.00;97535.75;5091094;28;20617;-80
2023/07/02 01:07:24;;;;;;;10.00;5.23;;;;;;;15.96;100.00;97527.16;5091310;28;20221;-80
2023/07/02 01:09:53;;;;;;;5.07;4.50;;;;;;;15.97;100.00;97535.97;5092332;28;20234;-80
2023/07/02 01:12:21;;;;;;;8.00;4.20;;;;;;;15.91;100.00;97545.44;5093842;28;20203;-80
2023/07/02 01:14:51;;;;;;;5.83;5.23;;;;;;;15.91;100.00;97539.25;5093646;28;20717;-80
2023/07/02 01:17:19;;;;;;;5.30;4.80;;;;;;;15.90;100.00;97548.22;5093779;28;20206;-80
2023/07/02 01:19:51;;;;;;;5.67;4.70;;;;;;;15.97;100.00;97543.97;5093402;28;20305;-80
2023/07/02 01:22:18;;;;;;;4.70;4.23;;;;;;;16.00;100.00;97546.34;5094124;28;20244;-80
2023/07/02 01:24:47;;;;;;;5.30;4.80;;;;;;;15.98;100.00;97536.63;5093388;28;20237;-80
2023/07/02 01:27:14;;;;;;;5.53;5.03;;;;;;;16.01;100.00;97529.34;5093572;28;20301;-80
2023/07/02 01:29:41;;;;;;;5.67;4.57;;;;;;;15.98;100.00;97543.81;5093054;28;20279;-80
2023/07/02 01:32:09;;;;;;;5.27;4.77;;;;;;;15.90;100.00;97548.22;5093642;28;20207;-80
2023/07/02 01:34:35;;;;;;;5.07;4.67;;;;;;;15.87;100.00;97559.19;5093514;28;20291;-80
2023/07/02 01:37:04;;;;;;;5.30;4.50;;;;;;;15.85;100.00;97555.84;5093463;28;20206;-80
2023/07/02 01:39:31;;;;;;;5.17;4.30;;;;;;;15.79;100.00;97551.13;5092971;28;20214;-80
2023/07/02 01:42:09;;;;;;;4.90;4.33;;;;;;;15.79;100.00;97545.78;5093294;28;20207;-80
2023/07/02 01:44:36;;;;;;;8.10;4.20;;;;;;;15.76;100.00;97546.94;5093266;28;20223;-80
2023/07/02 01:47:03;;;;;;;7.20;4.80;;;;;;;15.75;100.00;97552.41;5093395;28;20214;-80
2023/07/02 01:49:29;;;;;;;4.73;4.23;;;;;;;15.73;100.00;97557.06;5092959;28;20226;-80
2023/07/02 01:51:57;;;;;;;6.27;4.67;;;;;;;15.73;100.00;97549.91;5093126;28;20583;-80
2023/07/02 01:54:27;;;;;;;6.00;4.50;;;;;;;15.68;100.00;97549.53;5092889;28;20617;-80
2023/07/02 01:56:54;;;;;;;5.30;4.63;;;;;;;15.63;100.00;97545.66;5093443;28;20210;-80
2023/07/02 01:59:20;;;;;;;5.20;4.50;;;;;;;15.56;100.00;97540.06;5092566;28;20199;-80
2023/07/02 02:01:47;;;;;;;5.30;4.47;;;;;;;15.58;100.00;97543.41;5093088;28;20214;-80
2023/07/02 02:04:14;;;;;;;4.63;4.23;;;;;;;15.57;100.00;97547.06;5092793;28;20241;-80
2023/07/02 02:06:41;;;;;;;5.83;4.40;;;;;;;15.57;100.00;97548.91;5092925;28;20207;-80
2023/07/02 02:09:09;;;;;;;4.67;4.20;;;;;;;15.58;100.00;97556.75;5092432;28;20677;-80
2023/07/02 02:11:40;;;;;;;4.60;4.20;;;;;;;15.56;100.00;97555.22;5092897;28;20199;-80
2023/07/02 02:14:07;;;;;;;4.53;4.13;;;;;;;15.53;100.00;97561.66;5092674;28;20237;-80
2023/07/02 02:16:34;;;;;;;5.07;4.40;;;;;;;15.49;100.00;97554.13;5092718;28;20207;-80
2023/07/02 02:19:01;;;;;;;6.30;4.63;;;;;;;15.46;100.00;97554.44;5092821;28;20263;-80
2023/07/02 02:21:28;;;;;;;5.03;4.37;;;;;;;15.49;100.00;97559.47;5092326;28;20214;-80
2023/07/02 02:23:54;;;;;;;5.73;5.13;;;;;;;15.56;100.00;97557.88;5092584;28;20238;-80
2023/07/02 02:26:22;;;;;;;5.27;4.30;;;;;;;15.62;100.00;97560.78;5092582;28;20206;-80
2023/07/02 02:28:50;;;;;;;4.67;4.00;;;;;;;15.69;100.00;97561.84;5092187;28;20227;-80
2023/07/02 02:31:17;;;;;;;5.40;4.83;;;;;;;15.75;100.00;97565.72;5092130;28;20218;-80
2023/07/02 02:33:43;;;;;;;7.50;4.60;;;;;;;15.78;100.00;97563.63;5092277;28;20233;-80
2023/07/02 02:36:10;;;;;;;4.50;4.10;;;;;;;15.80;100.00;97558.97;5092168;28;20217;-80
2023/07/02 02:38:37;;;;;;;5.67;4.40;;;;;;;15.85;100.00;97556.69;5092220;28;20213;-81
2023/07/02 02:41:04;;;;;;;4.60;4.10;;;;;;;15.88;100.00;97556.38;5091952;28;20238;-81
2023/07/02 02:43:30;;;;;;;4.80;4.03;;;;;;;15.92;100.00;97556.91;5092160;28;20249;-80
2023/07/02 02:45:58;;;;;;;4.57;4.03;;;;;;;15.95;100.00;97557.44;5092054;28;20206;-80
2023/07/02 02:48:25;;;;;;;5.57;4.10;;;;;;;15.97;100.00;97565.28;5091928;28;20221;-80
2023/07/02 02:50:51;;;;;;;5.27;4.23;;;;;;;15.99;100.00;97558.81;5091428;28;20732;-80
2023/07/02 02:53:18;;;;;;;4.67;4.27;;;;;;;16.04;100.00;97561.84;5091988;28;20222;-80
2023/07/02 02:55:44;;;;;;;4.87;4.10;;;;;;;16.08;100.00;97563.22;5091673;28;20685;-80
2023/07/02 02:58:11;;;;;;;6.37;4.30;;;;;;;16.10;100.00;97567.41;5091838;28;20214;-80
2023/07/02 03:00:42;;;;;;;4.97;4.23;;;;;;;16.18;100.00;97569.31;5091575;28;20210;-80
2023/07/02 03:03:11;;;;;;;5.90;4.33;;;;;;;16.16;100.00;97582.78;5105947;22;20291;-78
2023/07/02 03:05:38;;;;;;;4.70;4.27;;;;;;;16.18;100.00;97579.97;5050797;28;20235;-78
2023/07/02 03:08:05;;;;;;;5.23;4.10;;;;;;;16.21;100.00;97591.16;5051566;28;20290;-78
2023/07/02 03:10:31;;;;;;;6.03;4.10;;;;;;;16.25;100.00;97597.03;5051212;28;20232;-78
2023/07/02 03:12:58;;;;;;;7.07;3.70;;;;;;;16.29;100.00;97593.91;5051328;28;20231;-78
2023/07/02 03:15:24;;;;;;;5.83;3.67;;;;;;;16.35;100.00;97587.94;5050871;28;20208;-78
2023/07/02 03:17:50;;;;;;;3.60;3.20;;;;;;;16.29;100.00;97609.91;5051193;28;20208;-78
2023/07/02 03:20:18;;;;;;;4.10;3.70;;;;;;;16.31;100.00;97623.94;5050840;28;20691;-78
2023/07/02 03:22:45;;;;;;;4.93;3.73;;;;;;;16.31;100.00;97628.41;5051183;28;20208;-78
2023/07/02 03:25:11;;;;;;;4.43;3.83;;;;;;;16.15;100.00;97629.09;5050905;28;20243;-78
2023/07/02 03:27:38;;;;;;;8.30;3.97;;;;;;;16.02;100.00;97628.66;5051141;28;20211;-79
2023/07/02 03:30:06;;;;;;;6.37;4.27;;;;;;;16.00;100.00;97631.63;5050914;28;20730;-78
2023/07/02 03:32:32;;;;;;;7.43;4.30;;;;;;;15.94;100.00;97640.22;5051069;28;20204;-78
2023/07/02 03:34:59;;;;;;;5.17;4.37;;;;;;;15.90;100.00;97639.69;5051166;28;20605;-79
2023/07/02 03:37:27;;;;;;;6.60;4.40;;;;;;;15.90;100.00;97644.16;5050724;28;20216;-78
2023/07/02 03:39:53;;;;;;;10.60;5.10;;;;;;;15.90;100.00;97644.16;5050767;28;20204;-79
2023/07/02 03:42:19;;;;;;;8.50;4.83;;;;;;;15.86;100.00;97643.63;5050811;28;20207;-79
2023/07/02 03:44:46;;;;;;;6.80;5.07;;;;;;;15.87;100.00;97647.13;5050790;28;20234;-78
2023/07/02 03:47:15;;;;;;;7.07;4.77;;;;;;;15.85;100.00;97649.97;5050834;28;20230;-79
2023/07/02 03:49:42;;;;;;;7.93;5.00;;;;;;;15.79;100.00;97657.69;5050784;28;20305;-78
2023/07/02 03:52:09;;;;;;;7.90;4.87;;;;;;;15.75;100.00;97662.50;5050964;28;20215;-79
2023/07/02 03:54:36;;;;;;;10.70;4.83;;;;;;;15.71;100.00;97665.63;5050766;28;20314;-79
2023/07/02 03:57:03;;;;;;;6.43;4.57;;;;;;;15.70;100.00;97674.59;5050717;28;20208;-78
2023/07/02 03:59:30;;;;;;;8.23;4.50;;;;;;;15.65;100.00;97682.19;5050422;28;20207;-78
2023/07/02 04:01:56;;;;;;;8.43;5.07;;;;;;;15.67;100.00;97682.88;5050555;28;20212;-78
2023/07/02 04:04:23;;;;;;;8.50;4.87;;;;;;;15.60;100.00;97684.47;5050764;28;20240;-78
2023/07/02 04:06:49;;;;;;;7.77;5.07;;;;;;;15.62;100.00;97682.47;5050757;28;20207;-80
2023/07/02 04:09:16;;;;;;;7.53;5.00;;;;;;;15.58;100.00;97681.94;5050383;28;20211;-79
2023/07/02 04:11:43;;;;;;;7.87;5.20;;;;;;;15.57;100.00;97687.44;5050449;28;20851;-79
2023/07/02 04:14:10;;;;;;;7.87;5.50;;;;;;;15.58;100.00;97686.44;5050482;28;20231;-78
2023/07/02 04:16:36;;;;;;;11.60;5.67;;;;;;;15.55;100.00;97692.03;5050640;28;20204;-78
2023/07/02 04:19:03;;;;;;;8.97;5.70;;;;;;;15.58;100.00;97702.41;5050474;28;20208;-78
2023/07/02 04:21:30;;;;;;;10.90;6.10;;;;;;;15.62;100.00;97693.13;5050303;28;20214;-79
2023/07/02 04:23:56;;;;;;;7.10;5.10;;;;;;;15.61;100.00;97691.44;5050465;28;20329;-78
2023/07/02 04:26:26;;;;;;;11.20;5.40;;;;;;;15.65;100.00;97682.19;5050226;28;20219;-78
2023/07/02 04:28:54;;;;;;;7.27;5.20;;;;;;;15.64;100.00;97681.34;5053976;28;20216;-78
2023/07/02 04:31:20;;;;;;;8.17;5.30;;;;;;;15.72;100.00;97688.59;5054023;28;20605;-78
2023/07/02 04:33:47;;;;;;;10.60;5.30;;;;;;;15.74;100.00;97691.94;5054314;28;20228;-78
2023/07/02 04:36:14;;;;;;;7.07;4.53;;;;;;;15.68;100.00;97693.38;5054220;28;20204;-78
2023/07/02 04:38:40;;;;;;;6.10;4.50;;;;;;;15.68;100.00;97692.53;5054277;28;20241;-78
2023/07/02 04:41:10;;;;;;;7.97;4.80;;;;;;;15.62;100.00;97688.66;5053727;28;20208;-78
2023/07/02 04:43:36;;;;;;;6.37;4.67;;;;;;;15.62;100.00;97687.78;5053965;28;20707;-78
2023/07/02 04:46:07;;;;;;;7.97;4.97;;;;;;;15.57;100.00;97690.91;5054105;28;20211;-78
2023/07/02 04:48:34;;;;;;;8.33;4.67;;;;;;;15.55;100.00;97686.72;5054219;28;20772;-78
2023/07/02 04:51:00;;;;;;;8.83;4.60;;;;;;;15.61;100.00;97704.78;5053515;28;20247;-78
2023/07/02 04:53:27;;;;;;;6.90;4.40;;;;;;;15.66;100.00;97703.38;5053698;28;20232;-78
2023/07/02 04:55:53;;;;;;;5.50;4.93;;;;;;;15.69;100.00;97710.19;5054025;28;20216;-78
2023/07/02 04:58:20;;;;;;;5.70;3.93;;;;;;;15.73;100.00;97711.59;5053871;28;20208;-78
2023/07/02 05:00:46;;;;;;;4.97;4.20;;;;;;;15.75;100.00;97714.94;5053352;28;20215;-78
2023/07/02 05:03:14;;;;;;;7.13;4.50;;;;;;;15.86;100.00;97717.41;5053520;28;20243;-78
2023/07/02 05:05:40;;;;;;;6.47;4.53;;;;;;;15.98;100.00;97719.72;5053673;28;20208;-78
2023/07/02 05:08:07;;;;;;;7.37;3.93;;;;;;;16.38;100.00;97725.50;5053525;28;20212;-78
2023/07/02 05:10:33;;;;;;;6.83;3.97;;;;;;;16.84;100.00;97718.13;5053214;28;20228;-78
2023/07/02 05:13:00;;;;;;;7.50;3.50;;;;;;;17.39;100.00;97730.25;5053493;28;20319;-78
2023/07/02 05:15:27;;;;;;;6.07;3.53;;;;;;;17.85;100.00;97726.31;5053521;28;20208;-78
2023/07/02 05:17:53;;;;;;;5.00;4.00;;;;;;;17.96;100.00;97734.88;5053280;28;20696;-79
2023/07/02 05:20:21;;;;;;;6.73;3.50;;;;;;;17.66;100.00;97738.06;5053110;28;20200;-79
2023/07/02 05:22:47;;;;;;;6.37;3.90;;;;;;;17.40;100.00;97737.25;5053143;28;20207;-78
2023/07/02 05:25:17;;;;;;;5.10;3.13;;;;;;;17.24;100.00;97745.13;5053394;28;20553;-78
2023/07/02 05:27:43;;;;;;;4.97;3.60;;;;;;;17.42;100.00;97751.28;5053298;28;20386;-78
2023/07/02 05:30:11;;;;;;;6.80;3.27;;;;;;;17.90;100.00;97740.00;5052860;28;20238;-78
2023/07/02 05:32:39;;;;;;;4.90;3.33;;;;;;;18.26;100.00;97752.16;5053158;28;20230;-78
2023/07/02 05:35:06;;;;;;;4.10;3.37;;;;;;;18.59;100.00;97754.78;5052974;28;20242;-78
2023/07/02 05:37:33;;;;;;;5.13;3.10;;;;;;;18.87;98.06;97753.50;5052748;28;20215;-78
2023/07/02 05:40:00;;;;;;;4.57;3.37;;;;;;;19.45;94.86;97754.16;5052867;28;20734;-78
2023/07/02 05:42:26;;;;;;;5.40;3.63;;;;;;;19.93;91.08;97742.50;5052962;28;20219;-78
2023/07/02 05:44:53;;;;;;;5.80;3.13;;;;;;;20.31;87.05;97744.38;5052759;28;20235;-78
2023/07/02 05:47:19;;;;;;;4.60;3.43;;;;;;;20.61;83.77;97728.22;5052677;28;20647;-78
2023/07/02 05:49:46;;;;;;;6.07;3.70;;;;;;;21.09;83.20;97738.63;5052580;28;20227;-78
2023/07/02 05:52:12;;;;;;;5.50;3.47;;;;;;;20.92;78.71;97731.72;5052818;28;20208;-78
2023/07/02 05:54:41;;;;;;;6.57;3.83;;;;;;;20.80;79.68;97730.44;5052794;28;20263;-78
2023/07/02 05:57:08;;;;;;;5.07;3.37;;;;;;;20.64;79.15;97727.88;5052823;28;20677;-78
2023/07/02 05:59:34;;;;;;;8.53;4.50;;;;;;;20.74;79.54;97739.25;5052468;28;20208;-79
2023/07/02 06:02:01;;;;;;;6.90;4.80;;;;;;;20.40;74.54;97736.09;5052804;28;20316;-78
2023/07/02 06:04:27;;;;;;;6.47;4.80;;;;;;;20.21;76.24;97751.78;5052389;28;20387;-78
2023/07/02 06:06:54;;;;;;;6.73;5.03;;;;;;;19.82;76.03;97749.03;5052794;28;20219;-78
2023/07/02 06:09:20;;;;;;;7.17;4.47;;;;;;;19.82;81.31;97767.81;5052399;28;20208;-78
2023/07/02 06:11:48;;;;;;;7.47;4.67;;;;;;;20.17;81.37;97764.72;5052517;28;20605;-82
2023/07/02 06:14:14;;;;;;;8.73;4.63;;;;;;;19.99;78.43;97756.03;5052375;28;20767;-82
2023/07/02 06:16:41;;;;;;;5.67;4.33;;;;;;;19.80;79.00;97763.66;5052497;28;20231;-78
2023/07/02 06:19:08;;;;;;;6.07;4.70;;;;;;;19.51;79.50;97763.38;5052452;28;20311;-82
2023/07/02 06:21:34;;;;;;;8.20;5.10;;;;;;;19.32;83.46;97780.66;5052746;28;20204;-83
2023/07/02 06:24:02;;;;;;;7.63;5.20;;;;;;;19.52;80.97;97765.88;5052388;28;20242;-83
2023/07/02 06:26:29;;;;;;;12.30;5.30;;;;;;;19.38;79.89;97761.22;5052844;28;20265;-83
2023/07/02 06:28:58;;;;;;;7.87;4.97;;;;;;;19.82;80.30;97775.03;5052464;28;20647;-85
2023/07/02 06:31:24;;;;;;;7.37;4.90;;;;;;;20.23;76.17;97761.34;5052416;28;20232;-87
2023/07/02 06:33:51;;;;;;;9.10;5.43;;;;;;;20.21;76.33;97757.16;5052193;28;20232;-84
2023/07/02 06:36:18;;;;;;;8.93;5.63;;;;;;;20.02;76.54;97769.13;5052339;28;20204;-85
2023/07/02 06:38:44;;;;;;;9.30;5.53;;;;;;;19.64;78.96;97772.56;5052591;28;20207;-81
2023/07/02 06:41:11;;;;;;;9.43;6.13;;;;;;;19.63;76.90;97770.88;5051683;28;20208;-82
2023/07/02 06:43:37;;;;;;;9.93;5.97;;;;;;;20.41;76.88;97774.53;5051677;28;20329;-84
2023/07/02 06:46:05;;;;;;;9.10;5.93;;;;;;;21.18;72.93;97764.44;5051699;28;20247;-84
2023/07/02 06:48:32;;;;;;;8.87;5.80;;;;;;;21.73;70.43;97753.34;5051906;28;20219;-83
2023/07/02 06:50:59;;;;;;;6.87;4.90;;;;;;;21.77;70.68;97755.47;5050628;28;20255;-82
2023/07/02 06:53:25;;;;;;;8.87;5.67;;;;;;;21.68;70.55;97756.59;5051644;28;20228;-82
2023/07/02 06:55:52;;;;;;;7.80;5.50;;;;;;;21.59;68.21;97754.97;5051634;28;20227;-83
2023/07/02 06:58:19;;;;;;;7.27;5.40;;;;;;;21.94;66.40;97750.78;5051497;28;20208;-83
2023/07/02 07:00:46;;;;;;;7.43;5.47;;;;;;;22.33;64.59;97744.06;5051247;28;20522;-84
2023/07/02 07:03:13;;;;;;;8.47;6.13;;;;;;;22.35;62.77;97739.31;5051241;28;20247;-81
2023/07/02 07:05:40;;;;;;;9.33;6.27;;;;;;;22.56;64.43;97752.03;5051670;28;20702;-85
2023/07/02 07:08:07;;;;;;;10.37;5.97;;;;;;;22.52;63.37;97739.94;5051348;28;20239;-87
2023/07/02 07:10:34;;;;;;;9.87;6.43;;;;;;;21.98;67.12;97750.22;5051832;28;20228;-92
2023/07/02 07:13:01;;;;;;;8.63;5.83;;;;;;;21.79;65.16;97737.31;5052243;28;20258;-89
2023/07/02 07:15:30;;;;;;;9.27;5.93;;;;;;;21.47;66.82;97751.06;5051546;28;20212;-88
2023/07/02 07:17:57;;;;;;;8.03;5.70;;;;;;;21.18;70.55;97760.91;5050533;28;20208;-90
2023/07/02 07:20:25;;;;;;;10.27;6.50;;;;;;;20.80;66.66;97743.88;5054649;28;20200;-91
2023/07/02 07:22:51;;;;;;;11.90;6.40;;;;;;;20.58;71.99;97763.50;5055031;28;20208;-85
2023/07/02 07:25:18;;;;;;;12.17;7.13;;;;;;;20.41;72.33;97764.59;5051271;28;20208;-87
2023/07/02 07:27:45;;;;;;;9.90;7.37;;;;;;;20.37;71.14;97759.75;5053986;28;20285;-84
2023/07/02 07:30:14;;;;;;;14.00;8.00;;;;;;;20.30;69.97;97753.44;5057380;28;20959;-84
2023/07/02 07:32:40;;;;;;;12.40;8.40;;;;;;;20.25;71.14;97767.34;5052934;28;20204;-88
2023/07/02 07:35:08;;;;;;;14.97;8.60;;;;;;;20.26;68.43;97761.00;5048199;28;20236;-84
2023/07/02 07:37:35;;;;;;;13.50;9.07;;;;;;;20.33;68.42;97753.06;5049720;28;20290;-84
2023/07/02 07:40:02;;;;;;;15.93;9.13;;;;;;;20.36;68.62;97758.91;5049958;28;20214;-84
2023/07/02 07:42:28;;;;;;;13.93;8.80;;;;;;;20.37;67.82;97755.22;5049358;28;20215;-83
2023/07/02 07:44:55;;;;;;;14.47;9.10;;;;;;;20.39;65.76;97734.41;5047764;28;20232;-82
2023/07/02 07:47:21;;;;;;;13.07;8.93;;;;;;;20.34;67.35;97757.41;5047553;28;20215;-83
2023/07/02 07:49:48;;;;;;;14.83;9.47;;;;;;;20.35;66.21;97751.88;5047511;28;20316;-83
2023/07/02 07:52:14;;;;;;;15.40;9.30;;;;;;;20.36;66.41;97747.34;5049913;28;20224;-83
2023/07/02 07:54:43;;;;;;;15.50;8.90;;;;;;;20.38;66.49;97758.75;5050006;28;20228;-83
2023/07/02 07:57:09;;;;;;;14.60;9.87;;;;;;;20.43;67.04;97761.75;5047795;28;20203;-83
2023/07/02 07:59:36;;;;;;;17.43;9.27;;;;;;;20.45;62.70;97732.88;5047316;28;20595;-81
2023/07/02 08:02:02;;;;;;;14.93;9.77;;;;;;;20.43;64.17;97743.78;5049697;28;20538;-81
2023/07/02 08:04:29;;;;;;;16.73;9.67;;;;;;;20.41;66.62;97759.22;5052575;28;20244;-80
2023/07/02 08:06:56;;;;;;;14.97;10.10;;;;;;;20.52;64.12;97756.16;5053746;28;20231;-82
2023/07/02 08:09:23;;;;;;;15.27;10.13;;;;;;;20.59;64.35;97762.47;5053467;28;20204;-82
2023/07/02 08:11:51;;;;;;;14.97;10.60;;;;;;;20.67;64.36;97754.38;5053749;28;20236;-82
2023/07/02 08:14:18;;;;;;;16.13;10.13;;;;;;;20.69;61.92;97736.25;5054097;28;20239;-82
2023/07/02 08:16:45;;;;;;;16.20;10.77;;;;;;;20.72;62.57;97740.44;5054218;28;20268;-81
2023/07/02 08:19:11;;;;;;;13.77;9.47;;;;;;;20.66;62.11;97738.47;5053558;28;20273;-82
2023/07/02 08:21:38;;;;;;;14.80;9.73;;;;;;;20.66;62.08;97733.91;5054020;28;20211;-82
2023/07/02 08:24:06;;;;;;;15.00;10.60;;;;;;;20.53;63.23;97747.09;5054238;28;20722;-81
2023/07/02 08:26:32;;;;;;;15.63;10.40;;;;;;;20.62;62.19;97743.34;5054076;28;20208;-83
2023/07/02 08:29:00;;;;;;;16.43;10.53;;;;;;;20.80;62.14;97743.06;5054162;28;20204;-80
2023/07/02 08:31:27;;;;;;;16.73;10.70;;;;;;;20.86;61.16;97732.41;5054070;28;20239;-89
2023/07/02 08:33:53;;;;;;;17.53;11.20;;;;;;;20.90;59.71;97731.06;5055644;28;20660;-92
2023/07/02 08:36:20;;;;;;;16.90;10.80;;;;;;;20.98;59.07;97724.81;5054564;28;20204;-92
2023/07/02 08:38:46;;;;;;;16.50;10.80;;;;;;;21.00;61.22;97739.75;5054661;28;20212;-90
2023/07/02 08:41:13;;;;;;;16.30;10.37;;;;;;;21.12;60.05;97743.66;5054898;28;20218;-94
2023/07/02 08:43:41;;;;;;;14.53;9.83;;;;;;;21.26;59.61;97742.88;5054686;28;20233;-92
2023/07/02 08:46:08;;;;;;;15.63;10.73;;;;;;;21.39;58.79;97729.63;5055543;28;20211;-93
2023/07/02 08:48:35;;;;;;;16.57;10.23;;;;;;;21.51;58.18;97728.16;5055378;28;20215;-93
2023/07/02 08:51:03;;;;;;;17.77;10.73;;;;;;;21.52;59.35;97737.91;5053621;28;20228;-93
2023/07/02 08:53:33;;;;;;;14.70;9.90;;;;;;;21.65;58.31;97732.72;5054691;28;20319;-93
2023/07/02 08:56:00;;;;;;;14.67;10.00;;;;;;;21.76;58.80;97739.56;5054260;28;20256;-92
2023/07/02 08:58:27;;;;;;;17.17;10.20;;;;;;;21.70;57.45;97730.34;5054498;28;20207;-89
2023/07/02 09:01:11;;;;;;;16.67;10.30;;;;;;;21.62;57.33;97733.09;5052867;28;20204;-88
2023/07/02 09:03:39;;;;;;;14.97;9.83;;;;;;;21.59;56.12;97725.38;5070319;22;20255;-83
2023/07/02 09:06:07;;;;;;;15.57;9.47;;;;;;;21.61;58.14;97741.34;5090188;28;20226;-80
2023/07/02 09:08:34;;;;;;;15.03;10.20;;;;;;;21.78;57.94;97735.66;5090986;28;20261;-82
2023/07/02 09:11:10;;;;;;;13.00;10.00;;;;;;;21.92;56.73;97732.13;5086358;28;20226;-81
2023/07/02 09:13:44;;;;;;;14.97;10.20;;;;;;;22.12;56.24;97733.22;5079900;28;20226;-81
2023/07/02 09:16:26;;;;;;;14.67;9.80;;;;;;;22.22;56.12;97736.47;5071624;28;20206;-80
2023/07/02 09:19:03;;;;;;;17.43;10.43;;;;;;;22.27;53.09;97715.19;5072658;28;20674;-79
2023/07/02 09:21:40;;;;;;;15.33;10.07;;;;;;;22.30;55.54;97739.03;5084874;28;20205;-79
2023/07/02 09:24:16;;;;;;;15.13;9.80;;;;;;;22.28;57.03;97749.19;5093844;28;20291;-79
2023/07/02 09:26:44;;;;;;;18.37;11.03;;;;;;;22.38;56.82;97740.78;5094147;28;20202;-82
2023/07/02 09:29:11;;;;;;;18.43;10.47;;;;;;;22.41;54.78;97727.78;5093917;28;20213;-80
2023/07/02 09:31:46;;;;;;;14.53;9.93;;;;;;;22.50;53.06;97715.91;5093779;28;20234;-79
2023/07/02 09:34:12;;;;;;;15.43;9.97;;;;;;;22.72;52.86;97714.91;5093769;28;20226;-79
2023/07/02 09:36:40;;;;;;;17.67;10.83;;;;;;;22.96;52.18;97719.06;5093748;28;20206;-82
2023/07/02 09:39:08;;;;;;;14.60;10.13;;;;;;;23.12;50.17;97689.16;5093463;28;20206;-80
2023/07/02 09:41:35;;;;;;;18.17;11.00;;;;;;;22.92;49.52;97698.94;5094070;28;20206;-86
2023/07/02 09:44:03;;;;;;;15.50;11.10;;;;;;;22.85;50.31;97708.81;5093729;28;20222;-82
2023/07/02 09:46:31;;;;;;;15.70;10.57;;;;;;;22.97;50.25;97713.50;5093647;28;20213;-78
2023/07/02 09:49:00;;;;;;;17.20;10.67;;;;;;;22.76;49.16;97700.03;5093827;28;20203;-87
2023/07/02 09:51:27;;;;;;;18.90;11.70;;;;;;;22.68;49.34;97697.44;5093259;28;20236;-85
2023/07/02 09:53:53;;;;;;;16.13;11.03;;;;;;;22.52;50.19;97692.31;5093731;28;20229;-80
2023/07/02 09:56:21;;;;;;;16.40;10.83;;;;;;;22.55;50.43;97697.31;5093670;28;20582;-84
2023/07/02 09:58:48;;;;;;;25.70;11.80;;;;;;;22.44;49.56;97684.34;5093591;28;20326;-83
2023/07/02 10:01:15;;;;;;;15.27;11.13;;;;;;;22.45;51.11;97706.72;5093260;28;20207;-85
2023/07/02 10:03:41;;;;;;;15.27;10.97;;;;;;;22.49;51.37;97708.84;5093471;28;20222;-83
2023/07/02 10:06:09;;;;;;;16.67;10.87;;;;;;;22.64;50.10;97698.03;5093406;28;20214;-82
2023/07/02 10:08:36;;;;;;;17.43;11.17;;;;;;;22.63;50.98;97701.75;5093532;28;20210;-84
2023/07/02 10:11:10;;;;;;;15.77;11.30;;;;;;;22.57;49.39;97689.03;5092936;28;20230;-84
2023/07/02 10:13:36;;;;;;;19.03;11.00;;;;;;;22.57;50.75;97700.66;5092922;28;20675;-84
2023/07/02 10:16:03;;;;;;;16.23;10.77;;;;;;;22.47;49.57;97700.13;5093215;28;20206;-82
2023/07/02 10:18:30;;;;;;;18.13;11.07;;;;;;;22.33;49.59;97694.75;5093265;28;20203;-83
2023/07/02 10:20:56;;;;;;;17.57;11.43;;;;;;;22.46;49.91;97703.00;5093040;28;20302;-80
2023/07/02 10:23:35;;;;;;;17.23;11.23;;;;;;;22.63;49.00;97686.44;5093117;28;20207;-77
2023/07/02 10:26:11;;;;;;;17.07;11.03;;;;;;;22.67;49.93;97695.78;5091921;28;20218;-76
2023/07/02 10:28:37;;;;;;;13.33;10.33;;;;;;;22.92;51.17;97707.03;5092873;28;20585;-78
2023/07/02 10:31:04;;;;;;;16.00;10.63;;;;;;;23.19;50.01;97698.16;5092290;28;20573;-76
2023/07/02 10:33:30;;;;;;;15.00;10.53;;;;;;;23.22;48.72;97679.72;5092924;28;20211;-76
2023/07/02 10:35:57;;;;;;;14.63;10.13;;;;;;;23.35;48.47;97676.31;5092794;28;20592;-78
2023/07/02 10:38:24;;;;;;;16.33;10.10;;;;;;;23.38;48.91;97689.38;5092854;28;20583;-76
2023/07/02 10:40:56;;;;;;;14.70;10.47;;;;;;;23.23;47.97;97665.22;5092413;28;20740;-77
2023/07/02 10:43:27;;;;;;;15.77;11.13;;;;;;;23.35;48.02;97677.13;5092657;28;20210;-76
2023/07/02 10:45:57;;;;;;;18.33;11.80;;;;;;;23.29;47.77;97675.22;5092595;28;20688;-78
2023/07/02 10:48:24;;;;;;;19.07;12.37;;;;;;;23.43;48.34;97679.69;5092628;28;20206;-78
2023/07/02 10:50:50;;;;;;;16.20;11.20;;;;;;;23.38;47.36;97673.19;5091997;28;20306;-76
2023/07/02 10:53:17;;;;;;;18.03;12.20;;;;;;;23.25;47.91;97671.25;5092393;28;20235;-79
2023/07/02 10:55:45;;;;;;;19.97;11.20;;;;;;;23.29;49.12;97683.31;5092279;28;20203;-78
2023/07/02 10:58:14;;;;;;;16.20;11.30;;;;;;;23.52;50.30;97701.97;5092161;28;20577;-78
2023/07/02 11:00:47;;;;;;;15.10;10.70;;;;;;;23.85;48.73;97687.63;5092013;28;20208;-78
2023/07/02 11:03:18;;;;;;;16.57;11.10;;;;;;;23.95;48.93;97688.13;5092207;28;20207;-76
2023/07/02 11:05:45;;;;;;;16.10;11.27;;;;;;;24.09;47.03;97678.22;5092114;28;20244;-77
2023/07/02 11:08:12;;;;;;;15.60;11.07;;;;;;;24.24;48.90;97695.94;5092120;28;20206;-77
2023/07/02 11:10:38;;;;;;;15.53;10.90;;;;;;;24.35;47.78;97687.28;5091806;28;20223;-77
2023/07/02 11:13:13;;;;;;;15.63;10.83;;;;;;;24.34;47.87;97688.31;5092045;28;20231;-77
2023/07/02 11:15:41;;;;;;;14.50;10.23;;;;;;;24.48;44.97;97652.19;5091903;28;20708;-78
2023/07/02 11:18:11;;;;;;;14.87;10.50;;;;;;;24.66;45.35;97670.53;5082694;28;20217;-79
2023/07/02 11:20:37;;;;;;;14.53;10.07;;;;;;;24.78;44.18;97658.09;5091866;28;20233;-77
2023/07/02 11:23:04;;;;;;;15.30;10.47;;;;;;;24.81;44.33;97663.91;5091815;28;20210;-77
2023/07/02 11:25:31;;;;;;;16.37;11.40;;;;;;;24.56;44.65;97654.69;5092132;28;20235;-77